Time;durP1;ratioP1;P1;durP2;ratioP2;P2;SDS_P1;SDS_P2;PMS_P1;PMS_P2;Temp;Humidity;BMP_temperature;BMP_pressure;BME280_temperature;BME280_humidity;BME280_pressure;Samples;Min_cycle;Max_cycle;Signal;HPM_P1;HPM_P2
2023/09/05 00:00:13;;;;;;;12.18;8.38;;;;;;;;;;5021056;28;25067;-72
2023/09/05 00:02:43;;;;;;;11.13;8.43;;;;;;;;;;5027352;28;25074;-74
2023/09/05 00:05:09;;;;;;;9.40;7.57;;;;;;;;;;5012497;28;25106;-73
2023/09/05 00:07:35;;;;;;;10.10;8.02;;;;;;;;;;5015840;28;25057;-72
2023/09/05 00:10:03;;;;;;;11.23;7.82;;;;;;;;;;5014544;28;25081;-73
2023/09/05 00:12:29;;;;;;;10.50;8.85;;;;;;;;;;5017949;28;25069;-72
2023/09/05 00:14:55;;;;;;;11.15;7.32;;;;;;;;;;5027109;28;25063;-73
2023/09/05 00:17:22;;;;;;;10.23;7.50;;;;;;;;;;5012687;28;25071;-73
2023/09/05 00:19:49;;;;;;;8.95;7.32;;;;;;;;;;5019808;28;25076;-74
2023/09/05 00:22:14;;;;;;;10.30;7.90;;;;;;;;;;5020387;28;25056;-73
2023/09/05 00:24:42;;;;;;;11.18;7.30;;;;;;;;;;5024796;28;25067;-72
2023/09/05 00:27:11;;;;;;;8.30;7.40;;;;;;;;;;5024682;28;25083;-74
2023/09/05 00:29:38;;;;;;;10.93;8.02;;;;;;;;;;5015064;28;25105;-73
2023/09/05 00:32:04;;;;;;;14.25;8.05;;;;;;;;;;5013216;28;25139;-75
2023/09/05 00:34:34;;;;;;;12.77;8.27;;;;;;;;;;5030982;28;25061;-73
2023/09/05 00:37:01;;;;;;;12.95;8.05;;;;;;;;;;5009785;28;25073;-73
2023/09/05 00:39:27;;;;;;;10.50;8.30;;;;;;;;;;5008517;28;25057;-73
2023/09/05 00:41:56;;;;;;;10.70;8.18;;;;;;;;;;5006875;28;25157;-73
2023/09/05 00:44:23;;;;;;;11.27;7.85;;;;;;;;;;5021437;28;25083;-73
2023/09/05 00:46:49;;;;;;;9.48;7.85;;;;;;;;;;5025953;28;25089;-71
2023/09/05 00:49:16;;;;;;;8.45;7.45;;;;;;;;;;5010118;28;25087;-73
2023/09/05 00:51:50;;;;;;;10.23;7.93;;;;;;;;;;5017611;28;25075;-78
2023/09/05 00:54:17;;;;;;;9.27;7.55;;;;;;;;;;5007944;28;25105;-74
2023/09/05 00:56:43;;;;;;;10.63;6.85;;;;;;;;;;5030561;28;25051;-72
2023/09/05 00:59:10;;;;;;;13.23;7.65;;;;;;;;;;5030514;28;25066;-73
2023/09/05 01:01:36;;;;;;;8.38;6.82;;;;;;;;;;5022016;28;25100;-73
2023/09/05 01:04:02;;;;;;;8.90;6.75;;;;;;;;;;5026270;28;25068;-72
2023/09/05 01:06:40;;;;;;;9.63;7.28;;;;;;;;;;5016560;28;25065;-72
2023/09/05 01:09:14;;;;;;;9.18;6.97;;;;;;;;;;5016528;28;25056;-73
2023/09/05 01:11:41;;;;;;;7.93;6.55;;;;;;;;;;5014018;28;25075;-75
2023/09/05 01:14:07;;;;;;;10.02;6.85;;;;;;;;;;5008226;28;25166;-74
2023/09/05 01:16:33;;;;;;;10.65;7.60;;;;;;;;;;5015793;28;25103;-73
2023/09/05 01:19:01;;;;;;;8.35;6.18;;;;;;;;;;5012737;28;25065;-73
2023/09/05 01:21:31;;;;;;;9.88;5.95;;;;;;;;;;5014380;28;25079;-72
2023/09/05 01:24:15;;;;;;;9.30;6.55;;;;;;;;;;5028397;28;25075;-73
2023/09/05 01:26:41;;;;;;;7.18;6.43;;;;;;;;;;5023532;28;25064;-73
2023/09/05 01:29:08;;;;;;;9.00;6.53;;;;;;;;;;5016822;28;25073;-74
2023/09/05 01:31:34;;;;;;;8.93;6.43;;;;;;;;;;5016934;28;25058;-74
2023/09/05 01:34:00;;;;;;;7.50;6.00;;;;;;;;;;5013478;28;25061;-73
2023/09/05 01:36:26;;;;;;;8.40;6.95;;;;;;;;;;5003311;28;25083;-71
2023/09/05 01:38:52;;;;;;;10.77;6.43;;;;;;;;;;5007838;28;25087;-71
2023/09/05 01:41:17;;;;;;;10.00;6.63;;;;;;;;;;5003309;28;25092;-73
2023/09/05 01:43:44;;;;;;;8.77;6.60;;;;;;;;;;5006338;28;25060;-69
2023/09/05 01:46:10;;;;;;;8.35;6.30;;;;;;;;;;5021865;28;25077;-74
2023/09/05 01:48:36;;;;;;;9.32;6.75;;;;;;;;;;5023236;28;25070;-72
2023/09/05 01:51:02;;;;;;;9.13;7.30;;;;;;;;;;5018376;28;25072;-72
2023/09/05 01:53:28;;;;;;;8.90;6.82;;;;;;;;;;5005154;28;25092;-72
2023/09/05 01:55:54;;;;;;;8.48;6.60;;;;;;;;;;5008107;28;25050;-74
2023/09/05 01:58:20;;;;;;;8.73;6.68;;;;;;;;;;5012170;28;25080;-73
2023/09/05 02:00:46;;;;;;;11.48;7.35;;;;;;;;;;5012173;28;25072;-73
2023/09/05 02:03:12;;;;;;;10.80;6.47;;;;;;;;;;5008168;28;25063;-75
2023/09/05 02:05:38;;;;;;;10.27;7.00;;;;;;;;;;5014238;28;25080;-72
2023/09/05 02:08:04;;;;;;;11.85;6.90;;;;;;;;;;5009586;28;25052;-74
2023/09/05 02:10:31;;;;;;;12.85;7.72;;;;;;;;;;5013566;28;25122;-73
2023/09/05 02:12:57;;;;;;;8.80;6.72;;;;;;;;;;5012826;28;25061;-72
2023/09/05 02:15:23;;;;;;;11.73;7.53;;;;;;;;;;5021742;28;25065;-73
2023/09/05 02:17:49;;;;;;;11.55;6.82;;;;;;;;;;5007490;28;25089;-73
2023/09/05 02:20:15;;;;;;;9.55;6.88;;;;;;;;;;5011781;28;25072;-72
2023/09/05 02:22:42;;;;;;;9.07;7.22;;;;;;;;;;5011411;28;25143;-73
2023/09/05 02:25:08;;;;;;;9.27;7.45;;;;;;;;;;5008714;28;25048;-74
2023/09/05 02:27:34;;;;;;;8.68;6.65;;;;;;;;;;5009806;28;25077;-74
2023/09/05 02:30:01;;;;;;;11.88;7.22;;;;;;;;;;5014424;28;25060;-73
2023/09/05 02:32:30;;;;;;;9.40;7.43;;;;;;;;;;5007914;28;25107;-72
2023/09/05 02:34:58;;;;;;;11.82;6.45;;;;;;;;;;5007322;28;25138;-72
2023/09/05 02:37:24;;;;;;;9.93;7.40;;;;;;;;;;5003230;28;25116;-74
2023/09/05 02:39:50;;;;;;;9.05;6.88;;;;;;;;;;5011519;28;25112;-74
2023/09/05 02:42:16;;;;;;;8.05;6.93;;;;;;;;;;5006813;28;25063;-75
2023/09/05 02:44:42;;;;;;;12.60;7.10;;;;;;;;;;5007486;28;25065;-73
2023/09/05 02:47:08;;;;;;;11.82;6.90;;;;;;;;;;5004982;28;25074;-74
2023/09/05 02:49:34;;;;;;;11.13;7.20;;;;;;;;;;5007782;28;25063;-71
2023/09/05 02:52:00;;;;;;;11.48;6.70;;;;;;;;;;5005784;28;25093;-72
2023/09/05 02:54:28;;;;;;;8.55;6.78;;;;;;;;;;5011952;28;25053;-73
2023/09/05 02:56:55;;;;;;;8.00;6.22;;;;;;;;;;5005486;28;25061;-72
2023/09/05 02:59:21;;;;;;;9.30;6.35;;;;;;;;;;5005997;28;25075;-73
2023/09/05 03:01:47;;;;;;;9.60;6.38;;;;;;;;;;5024382;28;25138;-72
2023/09/05 03:04:16;;;;;;;8.65;6.00;;;;;;;;;;5002562;28;25114;-72
2023/09/05 03:06:42;;;;;;;6.85;5.47;;;;;;;;;;5014833;28;25068;-72
2023/09/05 03:09:08;;;;;;;9.23;6.40;;;;;;;;;;5003762;28;25079;-69
2023/09/05 03:11:35;;;;;;;7.30;5.88;;;;;;;;;;5011070;28;25065;-72
2023/09/05 03:14:02;;;;;;;10.40;6.55;;;;;;;;;;5016474;28;25077;-73
2023/09/05 03:16:28;;;;;;;8.40;6.60;;;;;;;;;;5007282;28;25051;-73
2023/09/05 03:18:59;;;;;;;9.23;6.47;;;;;;;;;;5007511;28;25144;-72
2023/09/05 03:21:25;;;;;;;7.55;5.95;;;;;;;;;;5031177;28;25073;-73
2023/09/05 03:23:51;;;;;;;9.05;6.35;;;;;;;;;;5004498;28;25075;-73
2023/09/05 03:26:18;;;;;;;15.55;6.78;;;;;;;;;;5010264;28;25099;-72
2023/09/05 03:28:45;;;;;;;10.20;5.78;;;;;;;;;;5005937;28;25102;-72
2023/09/05 03:31:11;;;;;;;8.57;6.30;;;;;;;;;;5006745;28;25159;-74
2023/09/05 03:33:37;;;;;;;12.45;6.10;;;;;;;;;;5007075;28;25069;-75
2023/09/05 03:36:05;;;;;;;7.15;5.53;;;;;;;;;;5008493;28;25075;-73
2023/09/05 03:38:31;;;;;;;8.13;6.00;;;;;;;;;;5006880;28;25050;-72
2023/09/05 03:40:57;;;;;;;11.30;6.50;;;;;;;;;;5007618;28;25079;-73
2023/09/05 03:43:23;;;;;;;14.13;6.45;;;;;;;;;;5004553;28;25076;-71
2023/09/05 03:45:49;;;;;;;9.57;6.40;;;;;;;;;;5008047;28;25081;-72
2023/09/05 03:48:15;;;;;;;10.18;6.53;;;;;;;;;;5005335;28;25074;-73
2023/09/05 03:50:41;;;;;;;8.75;6.75;;;;;;;;;;5006624;28;25082;-72
2023/09/05 03:53:08;;;;;;;9.10;5.90;;;;;;;;;;5012218;28;25071;-72
2023/09/05 03:55:34;;;;;;;11.73;6.97;;;;;;;;;;5008146;28;25069;-73
2023/09/05 03:58:00;;;;;;;9.45;6.57;;;;;;;;;;5026055;28;25063;-73
2023/09/05 04:00:26;;;;;;;10.73;7.30;;;;;;;;;;5027113;28;25160;-72
2023/09/05 04:02:52;;;;;;;9.18;6.80;;;;;;;;;;5000216;28;25056;-74
2023/09/05 04:05:19;;;;;;;6.82;6.13;;;;;;;;;;5016584;28;25178;-72
2023/09/05 04:07:44;;;;;;;8.30;6.20;;;;;;;;;;5012921;28;25121;-72
2023/09/05 04:10:10;;;;;;;8.85;6.63;;;;;;;;;;5005711;28;25052;-72
2023/09/05 04:12:37;;;;;;;13.32;6.45;;;;;;;;;;5000408;28;25104;-73
2023/09/05 04:15:03;;;;;;;9.68;7.18;;;;;;;;;;5010917;28;25049;-73
2023/09/05 04:17:29;;;;;;;11.32;6.55;;;;;;;;;;5019405;28;25085;-73
2023/09/05 04:19:55;;;;;;;13.60;6.25;;;;;;;;;;5007912;28;25076;-72
2023/09/05 04:22:24;;;;;;;11.63;6.80;;;;;;;;;;5006629;28;25162;-74
2023/09/05 04:24:53;;;;;;;13.02;6.85;;;;;;;;;;5002374;28;25102;-72
2023/09/05 04:27:21;;;;;;;8.95;6.80;;;;;;;;;;5004289;28;25083;-72
2023/09/05 04:29:47;;;;;;;7.57;6.70;;;;;;;;;;5005372;28;25084;-73
2023/09/05 04:32:13;;;;;;;8.45;6.88;;;;;;;;;;5006330;28;25069;-73
2023/09/05 04:34:39;;;;;;;7.55;6.78;;;;;;;;;;5007638;28;25079;-73
2023/09/05 04:37:06;;;;;;;9.68;6.15;;;;;;;;;;5006824;28;25063;-77
2023/09/05 04:39:34;;;;;;;9.30;6.38;;;;;;;;;;5011807;28;25085;-74
2023/09/05 04:42:00;;;;;;;10.10;6.78;;;;;;;;;;5022020;28;25054;-72
2023/09/05 04:44:27;;;;;;;10.82;6.40;;;;;;;;;;5010516;28;25064;-73
2023/09/05 04:46:53;;;;;;;7.93;6.93;;;;;;;;;;5006082;28;25087;-74
2023/09/05 04:49:19;;;;;;;10.18;7.28;;;;;;;;;;5010981;28;25084;-75
2023/09/05 04:51:45;;;;;;;8.20;6.63;;;;;;;;;;5012147;28;25137;-73
2023/09/05 04:54:11;;;;;;;13.43;7.40;;;;;;;;;;5005953;28;25059;-75
2023/09/05 04:56:37;;;;;;;8.63;6.85;;;;;;;;;;5010209;28;25062;-74
2023/09/05 04:59:03;;;;;;;9.27;7.60;;;;;;;;;;5022782;28;25100;-75
2023/09/05 05:01:30;;;;;;;11.15;7.00;;;;;;;;;;5020429;28;25045;-74
2023/09/05 05:03:55;;;;;;;10.27;7.05;;;;;;;;;;5035394;28;25062;-73
2023/09/05 05:06:22;;;;;;;11.70;7.10;;;;;;;;;;5014408;28;25091;-72
2023/09/05 05:08:48;;;;;;;8.13;7.05;;;;;;;;;;5021119;28;25079;-73
2023/09/05 05:11:14;;;;;;;8.60;6.82;;;;;;;;;;5012255;28;25119;-75
2023/09/05 05:13:41;;;;;;;15.88;7.60;;;;;;;;;;5013403;28;25102;-73
2023/09/05 05:16:07;;;;;;;8.88;6.53;;;;;;;;;;5022257;28;25088;-73
2023/09/05 05:18:33;;;;;;;11.48;7.13;;;;;;;;;;5020405;28;25108;-76
2023/09/05 05:20:59;;;;;;;10.32;7.13;;;;;;;;;;5018324;28;25069;-75
2023/09/05 05:23:25;;;;;;;9.50;6.53;;;;;;;;;;5011566;28;25101;-74
2023/09/05 05:25:51;;;;;;;7.82;6.05;;;;;;;;;;5013817;28;25066;-74
2023/09/05 05:28:17;;;;;;;10.50;7.03;;;;;;;;;;5006818;28;25114;-73
2023/09/05 05:30:43;;;;;;;8.75;6.60;;;;;;;;;;5011524;28;25060;-74
2023/09/05 05:33:09;;;;;;;9.45;6.13;;;;;;;;;;5009413;28;25102;-75
2023/09/05 05:35:35;;;;;;;8.90;6.10;;;;;;;;;;5010419;28;25131;-74
2023/09/05 05:38:01;;;;;;;8.50;5.80;;;;;;;;;;5009646;28;25083;-77
2023/09/05 05:40:27;;;;;;;10.18;6.43;;;;;;;;;;5016815;28;25085;-75
2023/09/05 05:42:53;;;;;;;9.43;6.47;;;;;;;;;;5019102;28;25073;-75
2023/09/05 05:45:19;;;;;;;8.43;5.57;;;;;;;;;;5026490;28;25058;-75
2023/09/05 05:47:45;;;;;;;7.88;5.47;;;;;;;;;;5021497;28;25150;-75
2023/09/05 05:50:11;;;;;;;7.40;5.50;;;;;;;;;;5015923;28;25069;-75
2023/09/05 05:52:39;;;;;;;7.43;5.40;;;;;;;;;;5018539;28;25116;-76
2023/09/05 05:55:05;;;;;;;7.80;6.10;;;;;;;;;;5031269;28;25056;-78
2023/09/05 05:57:31;;;;;;;9.98;5.65;;;;;;;;;;5012374;28;25105;-78
2023/09/05 05:59:57;;;;;;;7.10;5.53;;;;;;;;;;5012351;28;25090;-75
2023/09/05 06:02:23;;;;;;;8.43;6.68;;;;;;;;;;5011890;28;25065;-73
2023/09/05 06:04:49;;;;;;;7.88;5.85;;;;;;;;;;5008361;28;25073;-75
2023/09/05 06:07:15;;;;;;;7.70;5.30;;;;;;;;;;5000538;28;25057;-74
2023/09/05 06:09:41;;;;;;;7.93;5.78;;;;;;;;;;5011642;28;25056;-74
2023/09/05 06:12:07;;;;;;;9.30;5.18;;;;;;;;;;5011453;28;25065;-75
2023/09/05 06:14:33;;;;;;;7.00;5.50;;;;;;;;;;5005162;28;25056;-74
2023/09/05 06:16:59;;;;;;;10.98;5.82;;;;;;;;;;5009500;28;25064;-77
2023/09/05 06:19:27;;;;;;;8.95;5.90;;;;;;;;;;5009997;28;25106;-75
2023/09/05 06:21:53;;;;;;;6.53;5.20;;;;;;;;;;5011725;28;25102;-73
2023/09/05 06:24:20;;;;;;;8.88;6.15;;;;;;;;;;5004964;28;25114;-75
2023/09/05 06:26:46;;;;;;;8.35;5.63;;;;;;;;;;5004177;28;25056;-76
2023/09/05 06:29:12;;;;;;;12.65;5.93;;;;;;;;;;5003803;28;25064;-79
2023/09/05 06:31:38;;;;;;;8.60;6.10;;;;;;;;;;5021201;28;25101;-77
2023/09/05 06:34:04;;;;;;;8.40;6.03;;;;;;;;;;5009177;28;25119;-78
2023/09/05 06:36:30;;;;;;;10.50;5.95;;;;;;;;;;5013446;28;25066;-76
2023/09/05 06:38:56;;;;;;;12.02;5.82;;;;;;;;;;5015823;28;25070;-78
2023/09/05 06:41:22;;;;;;;7.85;5.57;;;;;;;;;;5013555;28;25086;-74
2023/09/05 06:43:48;;;;;;;12.77;6.30;;;;;;;;;;5004653;28;25054;-76
2023/09/05 06:46:14;;;;;;;8.10;5.97;;;;;;;;;;5003035;28;25157;-73
2023/09/05 06:48:40;;;;;;;13.75;6.28;;;;;;;;;;5026460;28;25061;-74
2023/09/05 06:51:06;;;;;;;8.93;6.25;;;;;;;;;;5022462;28;25063;-74
2023/09/05 06:53:33;;;;;;;7.18;5.68;;;;;;;;;;5009922;28;25056;-74
2023/09/05 06:55:59;;;;;;;6.85;5.93;;;;;;;;;;5010848;28;25087;-73
2023/09/05 06:58:25;;;;;;;8.88;5.65;;;;;;;;;;5021880;28;25048;-73
2023/09/05 07:00:55;;;;;;;7.20;5.63;;;;;;;;;;5008107;28;25194;-76
2023/09/05 07:03:25;;;;;;;9.68;5.90;;;;;;;;;;5013412;28;25155;-75
2023/09/05 07:05:52;;;;;;;8.90;5.45;;;;;;;;;;5004292;28;25077;-76
2023/09/05 07:08:18;;;;;;;11.07;6.78;;;;;;;;;;5015047;28;25113;-74
2023/09/05 07:10:44;;;;;;;8.80;5.53;;;;;;;;;;5011931;28;25038;-73
2023/09/05 07:13:10;;;;;;;7.18;5.22;;;;;;;;;;5014780;28;25057;-73
2023/09/05 07:15:36;;;;;;;11.15;5.25;;;;;;;;;;5020726;28;25070;-74
2023/09/05 07:18:02;;;;;;;6.25;4.90;;;;;;;;;;5007795;28;25109;-73
2023/09/05 07:20:28;;;;;;;9.48;5.50;;;;;;;;;;5010883;28;25083;-73
2023/09/05 07:22:55;;;;;;;7.43;4.80;;;;;;;;;;5009361;28;25067;-74
2023/09/05 07:25:21;;;;;;;6.45;5.20;;;;;;;;;;5010786;28;25133;-74
2023/09/05 07:27:47;;;;;;;9.50;5.07;;;;;;;;;;5005995;28;25068;-74
2023/09/05 07:30:14;;;;;;;7.78;5.03;;;;;;;;;;5010937;28;25066;-75
2023/09/05 07:32:39;;;;;;;7.85;5.22;;;;;;;;;;5013646;28;25074;-75
2023/09/05 07:35:06;;;;;;;10.07;5.65;;;;;;;;;;5008162;28;25060;-75
2023/09/05 07:37:31;;;;;;;11.10;5.78;;;;;;;;;;5018718;28;25066;-74
2023/09/05 07:39:57;;;;;;;8.80;4.88;;;;;;;;;;5004274;28;25061;-73
2023/09/05 07:42:23;;;;;;;7.20;5.00;;;;;;;;;;4994228;28;25079;-72
2023/09/05 07:44:49;;;;;;;10.75;5.72;;;;;;;;;;5002387;28;25076;-77
2023/09/05 07:47:15;;;;;;;9.25;5.20;;;;;;;;;;5009009;28;25074;-72
2023/09/05 07:49:42;;;;;;;7.20;5.65;;;;;;;;;;5000411;28;25088;-72
2023/09/05 07:52:08;;;;;;;6.30;5.43;;;;;;;;;;5000751;28;25065;-75
2023/09/05 07:54:35;;;;;;;7.70;5.05;;;;;;;;;;5002110;28;25130;-73
2023/09/05 07:57:02;;;;;;;12.05;5.63;;;;;;;;;;5017689;28;25125;-74
2023/09/05 07:59:28;;;;;;;8.57;5.18;;;;;;;;;;4996928;28;25067;-73
2023/09/05 08:01:57;;;;;;;6.68;5.15;;;;;;;;;;5002284;28;25084;-73
2023/09/05 08:04:24;;;;;;;5.88;5.05;;;;;;;;;;5005612;28;25064;-74
2023/09/05 08:06:50;;;;;;;7.10;4.80;;;;;;;;;;5002827;28;25157;-74
2023/09/05 08:09:16;;;;;;;8.10;4.70;;;;;;;;;;5002744;28;25060;-74
2023/09/05 08:11:42;;;;;;;5.20;4.68;;;;;;;;;;5005157;28;25070;-72
2023/09/05 08:14:08;;;;;;;7.40;4.43;;;;;;;;;;5009538;28;25154;-73
2023/09/05 08:16:34;;;;;;;8.27;4.93;;;;;;;;;;5004429;28;25176;-73
2023/09/05 08:19:00;;;;;;;8.85;4.53;;;;;;;;;;4997435;28;25109;-75
2023/09/05 08:21:26;;;;;;;8.98;4.80;;;;;;;;;;5000815;28;25114;-74
2023/09/05 08:23:53;;;;;;;5.20;4.35;;;;;;;;;;5008269;28;25082;-75
2023/09/05 08:26:19;;;;;;;6.53;4.40;;;;;;;;;;5001740;28;25069;-73
2023/09/05 08:28:45;;;;;;;8.32;4.18;;;;;;;;;;5006188;28;25056;-73
2023/09/05 08:31:12;;;;;;;7.25;4.18;;;;;;;;;;5002884;28;25110;-74
2023/09/05 08:33:37;;;;;;;5.47;4.10;;;;;;;;;;5003716;28;25055;-74
2023/09/05 08:36:08;;;;;;;6.32;4.32;;;;;;;;;;5003635;28;25135;-77
2023/09/05 08:38:37;;;;;;;6.85;4.38;;;;;;;;;;5000199;28;25055;-74
2023/09/05 08:41:03;;;;;;;7.78;4.47;;;;;;;;;;4996492;28;25072;-74
2023/09/05 08:43:29;;;;;;;7.65;4.07;;;;;;;;;;5003690;28;25064;-75
2023/09/05 08:45:56;;;;;;;4.53;3.72;;;;;;;;;;5009113;28;25049;-75
2023/09/05 08:48:22;;;;;;;6.88;3.55;;;;;;;;;;5002307;28;25061;-77
2023/09/05 08:50:48;;;;;;;5.43;3.55;;;;;;;;;;5004120;28;25050;-75
2023/09/05 08:53:16;;;;;;;5.28;3.75;;;;;;;;;;5004796;28;25052;-74
2023/09/05 08:55:42;;;;;;;5.75;3.70;;;;;;;;;;4997466;28;25065;-75
2023/09/05 08:58:10;;;;;;;6.15;3.40;;;;;;;;;;5003496;28;25166;-73
2023/09/05 09:00:36;;;;;;;5.15;3.50;;;;;;;;;;5004570;28;25083;-73
2023/09/05 09:03:04;;;;;;;6.20;3.70;;;;;;;;;;5004946;28;25175;-74
2023/09/05 09:05:30;;;;;;;4.68;3.42;;;;;;;;;;5003332;28;25066;-75
2023/09/05 09:07:56;;;;;;;11.43;4.75;;;;;;;;;;5008386;28;25066;-77
2023/09/05 09:10:23;;;;;;;7.65;3.90;;;;;;;;;;5006851;28;25083;-75
2023/09/05 09:12:54;;;;;;;5.00;3.63;;;;;;;;;;5000581;28;25047;-74
2023/09/05 09:15:21;;;;;;;8.10;4.18;;;;;;;;;;5001054;28;25138;-76
2023/09/05 09:17:48;;;;;;;6.63;4.18;;;;;;;;;;5006861;28;25074;-74
2023/09/05 09:20:14;;;;;;;6.40;4.47;;;;;;;;;;5005793;28;25102;-73
2023/09/05 09:22:41;;;;;;;5.03;3.63;;;;;;;;;;5024325;28;25054;-74
2023/09/05 09:25:10;;;;;;;5.72;3.95;;;;;;;;;;5002771;28;25090;-73
2023/09/05 09:27:37;;;;;;;5.32;3.88;;;;;;;;;;5007882;28;25056;-73
2023/09/05 09:30:06;;;;;;;7.13;4.60;;;;;;;;;;5002854;28;25084;-74
2023/09/05 09:32:32;;;;;;;7.35;4.03;;;;;;;;;;5007001;28;25071;-73
2023/09/05 09:34:58;;;;;;;5.07;4.18;;;;;;;;;;5004057;28;25043;-72
2023/09/05 09:37:25;;;;;;;8.13;5.43;;;;;;;;;;5003494;28;25199;-71
2023/09/05 09:39:57;;;;;;;8.15;5.00;;;;;;;;;;5008254;28;25074;-73
2023/09/05 09:42:23;;;;;;;7.00;4.57;;;;;;;;;;5007600;28;25103;-75
2023/09/05 09:44:50;;;;;;;8.13;4.80;;;;;;;;;;5014253;28;25147;-76
2023/09/05 09:47:17;;;;;;;10.00;5.13;;;;;;;;;;5012620;28;25147;-73
2023/09/05 09:49:46;;;;;;;11.98;5.07;;;;;;;;;;5008206;28;25116;-73
2023/09/05 09:52:15;;;;;;;7.55;4.60;;;;;;;;;;5017188;28;25146;-72
2023/09/05 09:54:42;;;;;;;7.82;4.13;;;;;;;;;;5010175;28;25077;-73
2023/09/05 09:57:12;;;;;;;4.97;3.95;;;;;;;;;;5007489;28;25071;-74
2023/09/05 09:59:43;;;;;;;6.72;3.95;;;;;;;;;;5010182;28;25071;-74
2023/09/05 10:02:10;;;;;;;5.67;3.90;;;;;;;;;;5007774;28;25083;-73
2023/09/05 10:04:36;;;;;;;6.35;3.22;;;;;;;;;;5002339;28;25061;-75
2023/09/05 10:07:06;;;;;;;5.90;3.60;;;;;;;;;;5010517;28;25082;-73
2023/09/05 10:09:34;;;;;;;7.40;3.20;;;;;;;;;;5003186;28;25077;-73
2023/09/05 10:12:01;;;;;;;6.18;3.60;;;;;;;;;;5011692;28;25142;-74
2023/09/05 10:14:28;;;;;;;4.80;3.58;;;;;;;;;;4998951;28;25091;-73
2023/09/05 10:16:54;;;;;;;5.15;3.55;;;;;;;;;;5006864;28;25148;-73
2023/09/05 10:19:21;;;;;;;6.38;3.88;;;;;;;;;;5007329;28;25111;-74
2023/09/05 10:21:48;;;;;;;5.22;3.40;;;;;;;;;;5012488;28;25091;-76
2023/09/05 10:24:15;;;;;;;3.72;3.05;;;;;;;;;;5000872;28;25067;-73
2023/09/05 10:26:41;;;;;;;6.45;3.72;;;;;;;;;;5006709;28;25086;-75
2023/09/05 10:29:26;;;;;;;4.85;2.95;;;;;;;;;;5005972;28;25088;-74
2023/09/05 10:31:52;;;;;;;5.57;2.97;;;;;;;;;;5001613;28;25097;-74
2023/09/05 10:34:18;;;;;;;5.32;3.17;;;;;;;;;;4996698;28;25101;-72
2023/09/05 10:36:46;;;;;;;5.35;3.10;;;;;;;;;;5008881;28;25076;-75
2023/09/05 10:39:39;;;;;;;4.57;3.33;;;;;;;;;;5005010;28;25063;-79
2023/09/05 10:42:05;;;;;;;8.63;2.85;;;;;;;;;;5001443;28;25081;-76
2023/09/05 10:44:31;;;;;;;6.38;3.55;;;;;;;;;;5011272;28;25070;-76
2023/09/05 10:47:16;;;;;;;8.20;3.45;;;;;;;;;;5025003;28;25062;-77
2023/09/05 10:49:46;;;;;;;3.25;2.88;;;;;;;;;;5002604;28;25064;-73
2023/09/05 10:52:15;;;;;;;3.65;2.67;;;;;;;;;;5014624;28;25101;-76
2023/09/05 10:54:41;;;;;;;4.25;3.13;;;;;;;;;;5027082;28;25070;-74
2023/09/05 10:57:27;;;;;;;3.33;2.50;;;;;;;;;;5027089;28;25091;-77
2023/09/05 10:59:53;;;;;;;5.38;2.65;;;;;;;;;;5013291;28;25114;-74
2023/09/05 11:02:24;;;;;;;3.13;2.83;;;;;;;;;;5031440;28;25079;-74
2023/09/05 11:04:50;;;;;;;6.72;2.65;;;;;;;;;;5016584;28;25066;-72
2023/09/05 11:07:17;;;;;;;5.93;2.50;;;;;;;;;;5015135;28;25058;-72
2023/09/05 11:09:49;;;;;;;3.00;2.70;;;;;;;;;;5024801;28;25067;-72
2023/09/05 11:12:15;;;;;;;9.80;2.78;;;;;;;;;;5016376;28;25066;-73
2023/09/05 11:14:41;;;;;;;8.18;2.63;;;;;;;;;;5012467;28;25062;-72
2023/09/05 11:17:11;;;;;;;5.75;2.60;;;;;;;;;;5010611;28;25073;-77
2023/09/05 11:19:42;;;;;;;3.55;2.40;;;;;;;;;;5011578;28;25086;-74
2023/09/05 11:22:17;;;;;;;5.53;2.72;;;;;;;;;;5009292;28;25058;-74
2023/09/05 11:24:47;;;;;;;4.85;3.00;;;;;;;;;;5005307;28;25091;-74
2023/09/05 11:27:32;;;;;;;4.20;2.72;;;;;;;;;;5003769;28;25148;-73
2023/09/05 11:29:59;;;;;;;4.97;2.80;;;;;;;;;;5008863;28;25059;-75
2023/09/05 11:32:33;;;;;;;4.10;2.85;;;;;;;;;;5004199;28;25123;-74
2023/09/05 11:34:59;;;;;;;2.97;2.70;;;;;;;;;;5014293;28;25061;-74
2023/09/05 11:37:25;;;;;;;8.07;3.20;;;;;;;;;;5008364;28;25066;-75
2023/09/05 11:39:53;;;;;;;4.72;2.78;;;;;;;;;;5008847;28;25072;-73
2023/09/05 11:42:32;;;;;;;7.57;3.55;;;;;;;;;;5003213;28;25140;-76
2023/09/05 11:44:58;;;;;;;3.60;2.60;;;;;;;;;;5005963;28;25066;-74
2023/09/05 11:47:25;;;;;;;4.80;2.50;;;;;;;;;;4995372;28;25128;-74
2023/09/05 11:49:53;;;;;;;5.90;2.78;;;;;;;;;;4999086;28;25077;-75
2023/09/05 11:52:19;;;;;;;8.15;2.75;;;;;;;;;;5002466;28;25065;-77
2023/09/05 11:54:48;;;;;;;8.88;2.67;;;;;;;;;;5007472;28;25057;-75
2023/09/05 11:57:14;;;;;;;9.63;2.95;;;;;;;;;;5000226;28;25141;-74
2023/09/05 11:59:41;;;;;;;4.35;2.53;;;;;;;;;;5007127;28;25070;-74
2023/09/05 12:02:08;;;;;;;5.80;2.78;;;;;;;;;;5027752;28;25090;-76
2023/09/05 12:04:35;;;;;;;4.07;2.35;;;;;;;;;;5014997;28;25056;-70
2023/09/05 12:07:04;;;;;;;6.25;2.70;;;;;;;;;;5004808;28;25073;-74
2023/09/05 12:09:29;;;;;;;5.03;2.38;;;;;;;;;;5002931;28;25074;-75
2023/09/05 12:12:12;;;;;;;5.85;2.67;;;;;;;;;;5005016;28;25088;-74
2023/09/05 12:14:52;;;;;;;2.47;2.28;;;;;;;;;;5005318;28;25130;-72
2023/09/05 12:17:18;;;;;;;3.38;2.42;;;;;;;;;;5001969;28;25070;-73
2023/09/05 12:19:47;;;;;;;6.88;2.63;;;;;;;;;;5008612;28;25080;-73
2023/09/05 12:22:26;;;;;;;3.17;2.30;;;;;;;;;;4997009;28;25087;-76
2023/09/05 12:25:14;;;;;;;5.18;2.13;;;;;;;;;;5001094;28;25070;-75
2023/09/05 12:27:40;;;;;;;2.80;2.25;;;;;;;;;;5011824;28;25131;-73
2023/09/05 12:30:07;;;;;;;3.00;2.47;;;;;;;;;;5010597;28;25160;-75
2023/09/05 12:32:34;;;;;;;10.38;2.65;;;;;;;;;;5000709;28;25091;-75
2023/09/05 12:35:00;;;;;;;8.20;2.80;;;;;;;;;;5000796;28;25056;-73
2023/09/05 12:37:25;;;;;;;4.30;2.45;;;;;;;;;;5002349;28;25077;-73
2023/09/05 12:39:56;;;;;;;3.20;2.53;;;;;;;;;;5002715;28;25097;-73
2023/09/05 12:42:22;;;;;;;3.20;1.92;;;;;;;;;;5000001;28;25055;-74
2023/09/05 12:44:48;;;;;;;3.38;2.17;;;;;;;;;;5007684;28;25077;-75
2023/09/05 12:47:15;;;;;;;2.85;2.47;;;;;;;;;;4999397;28;25042;-73
2023/09/05 12:49:42;;;;;;;2.78;2.10;;;;;;;;;;5005584;28;25074;-73
2023/09/05 12:52:09;;;;;;;4.25;2.00;;;;;;;;;;5012871;28;25049;-74
2023/09/05 12:54:35;;;;;;;6.78;1.92;;;;;;;;;;5010342;28;25071;-73
2023/09/05 12:57:04;;;;;;;3.72;1.85;;;;;;;;;;5015264;28;25138;-74
2023/09/05 12:59:30;;;;;;;2.90;2.13;;;;;;;;;;5010131;28;25144;-75
2023/09/05 13:01:56;;;;;;;4.15;2.20;;;;;;;;;;5008422;28;25074;-71
2023/09/05 13:04:22;;;;;;;2.90;2.30;;;;;;;;;;5007320;28;25145;-72
2023/09/05 13:06:48;;;;;;;5.43;2.03;;;;;;;;;;5008106;28;25084;-73
2023/09/05 13:09:14;;;;;;;3.88;2.20;;;;;;;;;;5010266;28;25096;-73
2023/09/05 13:11:40;;;;;;;3.28;2.20;;;;;;;;;;5008892;28;25063;-73
2023/09/05 13:14:06;;;;;;;6.07;2.10;;;;;;;;;;5006289;28;25446;-72
2023/09/05 13:16:33;;;;;;;2.33;2.00;;;;;;;;;;5009251;28;25105;-72
2023/09/05 13:18:58;;;;;;;3.15;1.90;;;;;;;;;;5009105;28;25146;-72
2023/09/05 13:21:25;;;;;;;5.47;2.30;;;;;;;;;;5003928;28;25149;-72
2023/09/05 13:23:53;;;;;;;3.10;2.17;;;;;;;;;;5000754;28;25073;-73
2023/09/05 13:26:19;;;;;;;3.17;1.90;;;;;;;;;;5008051;28;25166;-72
2023/09/05 13:28:45;;;;;;;4.82;2.13;;;;;;;;;;4998692;28;25102;-72
2023/09/05 13:31:11;;;;;;;3.05;1.90;;;;;;;;;;5007800;28;25055;-72
2023/09/05 13:33:38;;;;;;;6.22;2.40;;;;;;;;;;5006174;28;25130;-72
2023/09/05 13:36:04;;;;;;;2.90;1.90;;;;;;;;;;5024053;28;25080;-76
2023/09/05 13:38:30;;;;;;;3.30;2.10;;;;;;;;;;5000524;28;25078;-73
2023/09/05 13:40:56;;;;;;;6.10;2.30;;;;;;;;;;5007124;28;25090;-75
2023/09/05 13:43:22;;;;;;;2.33;1.88;;;;;;;;;;5012037;28;25059;-74
2023/09/05 13:45:48;;;;;;;3.67;2.10;;;;;;;;;;5001601;28;25072;-74
2023/09/05 13:48:14;;;;;;;1.95;1.83;;;;;;;;;;5024822;28;25067;-75
2023/09/05 13:50:40;;;;;;;3.92;2.08;;;;;;;;;;5007412;28;25058;-74
2023/09/05 13:53:07;;;;;;;2.00;1.60;;;;;;;;;;4997342;28;25080;-77
2023/09/05 13:55:33;;;;;;;5.82;2.30;;;;;;;;;;5003899;28;25168;-73
2023/09/05 13:57:59;;;;;;;3.78;2.15;;;;;;;;;;5006225;28;25078;-71
2023/09/05 14:00:25;;;;;;;3.80;2.13;;;;;;;;;;5009062;28;25070;-77
2023/09/05 14:02:51;;;;;;;4.28;2.08;;;;;;;;;;5017409;28;25066;-74
2023/09/05 14:05:17;;;;;;;8.82;2.05;;;;;;;;;;5004658;28;25077;-74
2023/09/05 14:07:43;;;;;;;1.92;1.67;;;;;;;;;;5006350;28;25057;-74
2023/09/05 14:10:10;;;;;;;3.42;1.95;;;;;;;;;;5006587;28;25065;-74
2023/09/05 14:12:36;;;;;;;5.95;1.92;;;;;;;;;;5006321;28;25067;-71
2023/09/05 14:15:03;;;;;;;5.22;1.77;;;;;;;;;;5007315;28;25069;-74
2023/09/05 14:17:29;;;;;;;3.80;2.08;;;;;;;;;;5009364;28;25151;-72
2023/09/05 14:19:55;;;;;;;7.90;2.08;;;;;;;;;;5008268;28;25065;-73
2023/09/05 14:22:20;;;;;;;2.90;1.90;;;;;;;;;;5012276;28;25046;-74
2023/09/05 14:24:46;;;;;;;3.90;1.83;;;;;;;;;;5010186;28;25059;-74
2023/09/05 14:27:14;;;;;;;3.85;2.10;;;;;;;;;;5002740;28;25182;-73
2023/09/05 14:29:40;;;;;;;2.95;2.05;;;;;;;;;;5004626;28;25126;-74
2023/09/05 14:32:06;;;;;;;4.13;1.70;;;;;;;;;;5019596;28;25081;-76
2023/09/05 14:34:32;;;;;;;3.95;1.75;;;;;;;;;;5004060;28;25168;-74
2023/09/05 14:36:58;;;;;;;3.15;1.88;;;;;;;;;;5007572;28;25083;-74
2023/09/05 14:39:24;;;;;;;6.63;1.90;;;;;;;;;;5011563;28;25054;-74